createdAt,value
2023-08-31T00:01:49.599Z,11.70
2023-08-31T00:04:46.554Z,11.80
2023-08-31T00:07:43.490Z,11.70
2023-08-31T00:10:41.076Z,11.70
2023-08-31T00:13:39.350Z,11.70
2023-08-31T00:16:37.833Z,11.80
2023-08-31T00:19:35.126Z,11.80
2023-08-31T00:22:31.998Z,11.80
2023-08-31T00:25:29.810Z,11.80
2023-08-31T00:28:28.400Z,11.90
2023-08-31T00:31:25.600Z,11.80
2023-08-31T00:34:23.023Z,11.70
2023-08-31T00:37:22.367Z,11.80
2023-08-31T00:40:19.450Z,11.90
2023-08-31T00:43:16.974Z,11.90
2023-08-31T00:46:15.842Z,11.90
2023-08-31T00:49:13.959Z,11.90
2023-08-31T00:52:11.145Z,11.90
2023-08-31T00:55:09.420Z,11.90
2023-08-31T00:58:06.436Z,11.90
2023-08-31T01:01:32.175Z,11.90
2023-08-31T01:04:53.835Z,11.90
2023-08-31T01:08:19.573Z,12.00
2023-08-31T01:11:33.166Z,12.00
2023-08-31T01:15:00.548Z,11.90
2023-08-31T01:18:01.674Z,11.90
2023-08-31T01:21:20.790Z,11.90
2023-08-31T01:24:18.240Z,12.00
2023-08-31T01:27:15.901Z,12.00
2023-08-31T01:30:12.921Z,12.10
2023-08-31T01:33:10.120Z,12.10
2023-08-31T01:36:29.706Z,12.00
2023-08-31T01:40:12.968Z,12.10
2023-08-31T01:43:12.083Z,12.20
2023-08-31T01:46:09.535Z,12.10
2023-08-31T01:49:06.889Z,12.00
2023-08-31T01:52:03.959Z,12.00
2023-08-31T01:55:01.054Z,11.90
2023-08-31T01:57:57.978Z,12.00
2023-08-31T02:00:54.946Z,12.00
2023-08-31T02:03:52.089Z,12.00
2023-08-31T02:06:49.044Z,12.00
2023-08-31T02:09:46.103Z,12.00
2023-08-31T02:12:42.993Z,12.00
2023-08-31T02:15:40.296Z,12.00
2023-08-31T02:18:37.179Z,12.00
2023-08-31T02:21:34.073Z,11.90
2023-08-31T02:24:31.012Z,11.90
2023-08-31T02:27:28.419Z,11.90
2023-08-31T02:30:25.323Z,11.90
2023-08-31T02:33:22.363Z,11.90
2023-08-31T02:36:21.510Z,11.90
2023-08-31T02:39:18.392Z,11.90
2023-08-31T02:42:16.010Z,11.90
2023-08-31T02:45:12.993Z,11.80
2023-08-31T02:48:10.086Z,11.80
2023-08-31T02:51:07.070Z,11.80
2023-08-31T02:54:05.710Z,11.70
2023-08-31T02:57:03.336Z,11.70
2023-08-31T03:00:00.409Z,11.80
2023-08-31T03:02:57.473Z,11.80
2023-08-31T03:05:57.560Z,11.80
2023-08-31T03:08:54.512Z,11.70
2023-08-31T03:11:51.352Z,11.70
2023-08-31T03:14:49.481Z,11.60
2023-08-31T03:17:46.386Z,11.70
2023-08-31T03:20:43.355Z,11.60
2023-08-31T03:23:40.232Z,11.60
2023-08-31T03:26:37.401Z,11.60
2023-08-31T03:29:35.396Z,11.50
2023-08-31T03:32:32.396Z,11.60
2023-08-31T03:35:30.037Z,11.50
2023-08-31T03:38:26.941Z,11.50
2023-08-31T03:41:24.030Z,11.60
2023-08-31T03:44:22.960Z,11.50
2023-08-31T03:47:19.844Z,11.50
2023-08-31T03:50:16.780Z,11.70
2023-08-31T03:53:13.961Z,11.70
2023-08-31T03:56:11.677Z,11.60
2023-08-31T03:59:08.569Z,11.50
2023-08-31T04:02:05.572Z,11.50
2023-08-31T04:05:02.439Z,11.60
2023-08-31T04:07:59.387Z,11.60
2023-08-31T04:10:56.290Z,11.60
2023-08-31T04:13:53.145Z,11.50
2023-08-31T04:16:51.383Z,11.60
2023-08-31T04:19:48.308Z,11.50
2023-08-31T04:22:45.229Z,11.40
2023-08-31T04:25:43.087Z,11.30
2023-08-31T04:28:43.534Z,11.40
2023-08-31T04:31:40.775Z,11.30
2023-08-31T04:34:37.731Z,11.40
2023-08-31T04:37:34.946Z,11.40
2023-08-31T04:40:32.191Z,11.50
2023-08-31T04:43:29.287Z,11.40
2023-08-31T04:46:26.665Z,11.50
2023-08-31T04:49:23.769Z,11.50
2023-08-31T04:52:20.708Z,11.60
2023-08-31T04:55:17.647Z,11.60
2023-08-31T04:58:14.520Z,11.60
2023-08-31T05:01:11.480Z,11.50
2023-08-31T05:04:08.490Z,11.60
2023-08-31T05:07:05.475Z,11.60
2023-08-31T05:10:02.610Z,11.50
2023-08-31T05:12:59.501Z,11.50
2023-08-31T05:15:56.442Z,11.60
2023-08-31T05:18:53.449Z,11.50
2023-08-31T05:21:50.340Z,11.50
2023-08-31T05:24:47.324Z,11.60
2023-08-31T05:27:44.262Z,11.60
2023-08-31T05:30:52.091Z,11.50
2023-08-31T05:33:49.061Z,11.60
2023-08-31T05:36:45.956Z,11.60
2023-08-31T05:39:42.859Z,11.40
2023-08-31T05:42:39.848Z,11.50
2023-08-31T05:45:36.768Z,11.50
2023-08-31T05:48:35.781Z,11.60
2023-08-31T05:51:32.680Z,11.60
2023-08-31T05:54:29.540Z,11.60
2023-08-31T05:57:28.875Z,11.60
2023-08-31T06:00:25.842Z,11.70
2023-08-31T06:03:22.734Z,11.70
2023-08-31T06:06:19.744Z,11.70
2023-08-31T06:09:17.435Z,11.70
2023-08-31T06:12:14.402Z,11.60
2023-08-31T06:15:11.465Z,11.60
2023-08-31T06:18:08.739Z,11.60
2023-08-31T06:21:05.939Z,11.60
2023-08-31T06:24:03.750Z,11.60
2023-08-31T06:27:01.171Z,11.60
2023-08-31T06:29:58.096Z,11.70
2023-08-31T06:32:55.281Z,11.70
2023-08-31T06:35:55.331Z,11.70
2023-08-31T06:38:52.230Z,11.80
2023-08-31T06:41:50.316Z,11.90
2023-08-31T06:44:47.601Z,12.00
2023-08-31T06:47:44.699Z,11.90
2023-08-31T06:50:41.681Z,11.80
2023-08-31T06:53:38.680Z,11.90
2023-08-31T06:56:36.536Z,11.90
2023-08-31T06:59:33.487Z,12.00
2023-08-31T07:02:30.570Z,12.00
2023-08-31T07:05:29.048Z,12.00
2023-08-31T07:08:26.359Z,11.90
2023-08-31T07:11:23.370Z,11.90
2023-08-31T07:14:20.331Z,12.00
2023-08-31T07:17:21.236Z,12.20
2023-08-31T07:20:18.902Z,12.30
2023-08-31T07:23:15.870Z,12.30
2023-08-31T07:26:12.824Z,12.40
2023-08-31T07:29:09.928Z,12.40
2023-08-31T07:32:06.835Z,12.30
2023-08-31T07:35:05.895Z,12.40
2023-08-31T07:38:02.898Z,12.40
2023-08-31T07:41:00.688Z,12.30
2023-08-31T07:44:04.037Z,12.30
2023-08-31T07:47:03.567Z,12.50
2023-08-31T07:50:00.734Z,12.40
2023-08-31T07:52:57.697Z,12.40
2023-08-31T07:55:56.233Z,12.70
2023-08-31T07:58:53.200Z,12.70
2023-08-31T08:01:50.196Z,12.80
2023-08-31T08:04:47.542Z,12.80
2023-08-31T08:07:44.719Z,13.00
2023-08-31T08:10:42.058Z,13.10
2023-08-31T08:13:38.951Z,13.30
2023-08-31T08:16:36.772Z,13.30
2023-08-31T08:19:33.842Z,13.50
2023-08-31T08:22:30.831Z,13.40
2023-08-31T08:25:27.909Z,13.60
2023-08-31T08:28:24.833Z,13.70
2023-08-31T08:31:23.356Z,13.90
2023-08-31T08:34:20.961Z,14.20
2023-08-31T08:37:18.107Z,14.00
2023-08-31T08:40:15.042Z,14.00
2023-08-31T08:43:12.588Z,13.90
2023-08-31T08:46:10.757Z,14.00
2023-08-31T08:49:08.511Z,13.80
2023-08-31T08:52:06.694Z,13.70
2023-08-31T08:55:04.246Z,13.60
2023-08-31T08:58:01.300Z,13.70
2023-08-31T09:00:58.361Z,14.00
2023-08-31T09:03:55.232Z,14.30
2023-08-31T09:06:52.622Z,14.20
2023-08-31T09:09:51.529Z,14.20
2023-08-31T09:12:48.456Z,14.30
2023-08-31T09:15:49.988Z,14.60
2023-08-31T09:18:46.911Z,14.50
2023-08-31T09:21:43.798Z,14.30
2023-08-31T09:24:45.228Z,14.00
2023-08-31T09:27:45.688Z,14.10
2023-08-31T09:30:43.865Z,14.20
2023-08-31T09:33:53.851Z,14.20
2023-08-31T09:36:51.416Z,14.10
2023-08-31T09:39:48.302Z,14.10
2023-08-31T09:42:45.258Z,14.10
2023-08-31T09:45:46.028Z,14.30
2023-08-31T09:48:44.482Z,14.60
2023-08-31T09:51:47.549Z,14.30
2023-08-31T09:54:45.749Z,14.00
2023-08-31T09:57:47.253Z,14.20
2023-08-31T10:00:47.786Z,14.10
2023-08-31T10:03:46.330Z,14.30
2023-08-31T10:06:44.123Z,14.40
2023-08-31T10:09:41.571Z,14.80
2023-08-31T10:12:39.995Z,14.90
2023-08-31T10:15:37.625Z,14.60
2023-08-31T10:18:37.000Z,14.50
2023-08-31T10:21:34.787Z,14.40
2023-08-31T10:25:16.516Z,14.80
2023-08-31T10:28:24.959Z,14.80
2023-08-31T10:31:25.405Z,14.90
2023-08-31T10:34:38.560Z,14.80
2023-08-31T10:37:35.526Z,14.60
2023-08-31T10:40:33.769Z,14.00
2023-08-31T10:43:59.168Z,13.80
2023-08-31T10:46:56.425Z,13.70
2023-08-31T10:49:54.657Z,13.50
2023-08-31T10:52:51.655Z,13.50
2023-08-31T10:55:53.757Z,14.10
2023-08-31T10:59:01.017Z,14.60
2023-08-31T11:02:01.931Z,15.30
2023-08-31T11:05:18.521Z,15.40
2023-08-31T11:08:15.948Z,15.70
2023-08-31T11:11:12.920Z,15.60
2023-08-31T11:14:10.731Z,16.00
2023-08-31T11:17:08.454Z,16.20
2023-08-31T11:20:06.844Z,16.50
2023-08-31T11:23:04.806Z,17.10
2023-08-31T11:26:01.810Z,17.30
2023-08-31T11:28:58.702Z,17.30
2023-08-31T11:32:01.442Z,17.30
2023-08-31T11:34:58.604Z,17.10
2023-08-31T11:37:57.570Z,17.20
2023-08-31T11:40:58.527Z,17.10
2023-08-31T11:43:55.606Z,16.90
2023-08-31T11:46:53.149Z,16.80
2023-08-31T11:49:50.658Z,16.10
2023-08-31T11:52:48.454Z,16.00
2023-08-31T11:55:53.564Z,16.10
2023-08-31T11:59:04.563Z,15.80
2023-08-31T12:02:02.293Z,15.80
2023-08-31T12:04:59.265Z,15.60
2023-08-31T12:07:57.485Z,15.60
2023-08-31T12:10:55.615Z,15.50
2023-08-31T12:13:52.542Z,15.50
2023-08-31T12:16:50.783Z,15.60
2023-08-31T12:19:47.707Z,15.70
2023-08-31T12:22:44.563Z,16.00
2023-08-31T12:25:50.672Z,15.90
2023-08-31T12:28:47.558Z,15.70
2023-08-31T12:31:44.732Z,15.30
2023-08-31T12:34:41.748Z,15.30
2023-08-31T12:37:39.675Z,15.20
2023-08-31T12:40:37.230Z,15.30
2023-08-31T12:43:35.901Z,15.40
2023-08-31T12:46:33.218Z,15.10
2023-08-31T12:49:30.254Z,14.90
2023-08-31T12:52:27.156Z,14.70
2023-08-31T12:55:24.164Z,14.60
2023-08-31T12:58:22.956Z,14.60
2023-08-31T13:01:22.411Z,14.30
2023-08-31T13:04:19.423Z,14.20
2023-08-31T13:07:16.322Z,14.50
2023-08-31T13:10:13.344Z,14.70
2023-08-31T13:13:11.027Z,15.20
2023-08-31T13:16:08.333Z,15.70
2023-08-31T13:19:05.444Z,16.30
2023-08-31T13:22:02.323Z,16.40
2023-08-31T13:24:59.224Z,16.80
2023-08-31T13:27:56.242Z,17.00
2023-08-31T13:31:01.390Z,17.00
2023-08-31T13:33:58.508Z,17.30
2023-08-31T13:36:55.474Z,17.10
2023-08-31T13:39:55.607Z,17.30
2023-08-31T13:43:04.038Z,17.70
2023-08-31T13:46:01.012Z,17.70
2023-08-31T13:48:58.286Z,17.70
2023-08-31T13:51:55.511Z,17.50
2023-08-31T13:54:52.397Z,17.70
2023-08-31T13:57:49.339Z,18.10
2023-08-31T14:00:46.234Z,17.50
2023-08-31T14:03:43.866Z,17.20
2023-08-31T14:06:40.854Z,17.50
2023-08-31T14:09:37.833Z,17.50
2023-08-31T14:12:35.525Z,17.10
2023-08-31T14:15:32.475Z,17.00
2023-08-31T14:18:33.095Z,16.70
2023-08-31T14:21:30.019Z,16.50
2023-08-31T14:24:26.935Z,16.40
2023-08-31T14:27:27.144Z,16.40
2023-08-31T14:30:24.014Z,16.50
2023-08-31T14:33:20.954Z,16.30
2023-08-31T14:36:18.166Z,16.10
2023-08-31T14:39:16.105Z,16.10
2023-08-31T14:42:13.062Z,16.00
2023-08-31T14:45:10.340Z,16.40
2023-08-31T14:48:07.815Z,16.10
2023-08-31T14:51:04.733Z,16.20
2023-08-31T14:54:01.634Z,15.90
2023-08-31T14:56:58.532Z,15.90
2023-08-31T14:59:55.435Z,15.90
2023-08-31T15:02:52.542Z,15.90
2023-08-31T15:05:50.748Z,16.00
2023-08-31T15:08:47.759Z,16.20
2023-08-31T15:11:45.829Z,16.20
2023-08-31T15:14:42.800Z,15.90
2023-08-31T15:17:39.755Z,15.70
2023-08-31T15:20:38.720Z,15.50
2023-08-31T15:23:35.650Z,15.30
2023-08-31T15:26:32.630Z,15.40
2023-08-31T15:29:29.955Z,15.20
2023-08-31T15:32:27.391Z,15.20
2023-08-31T15:35:24.314Z,15.00
2023-08-31T15:38:21.305Z,14.90
2023-08-31T15:41:18.386Z,14.50
2023-08-31T15:44:15.289Z,14.40
2023-08-31T15:47:12.225Z,14.30
2023-08-31T15:50:10.166Z,14.50
2023-08-31T15:53:07.378Z,14.90
2023-08-31T15:56:05.697Z,15.50
2023-08-31T15:59:02.932Z,16.10
2023-08-31T16:01:59.918Z,16.30
2023-08-31T16:04:56.811Z,16.50
2023-08-31T16:07:53.745Z,16.40
2023-08-31T16:10:52.171Z,16.40
2023-08-31T16:13:49.255Z,16.60
2023-08-31T16:16:46.872Z,16.70
2023-08-31T16:19:43.895Z,16.70
2023-08-31T16:22:41.478Z,16.40
2023-08-31T16:25:38.563Z,16.10
2023-08-31T16:28:36.951Z,15.70
2023-08-31T16:31:33.975Z,15.50
2023-08-31T16:34:32.013Z,15.10
2023-08-31T16:37:28.904Z,15.00
2023-08-31T16:40:25.858Z,14.90
2023-08-31T16:43:25.021Z,14.80
2023-08-31T16:46:21.964Z,14.80
2023-08-31T16:49:19.772Z,14.60
2023-08-31T16:52:16.708Z,14.50
2023-08-31T16:55:13.689Z,14.50
2023-08-31T16:58:10.734Z,14.40
2023-08-31T17:01:07.918Z,14.40
2023-08-31T17:04:05.525Z,14.30
2023-08-31T17:07:02.436Z,14.20
2023-08-31T17:09:59.397Z,14.10
2023-08-31T17:12:57.583Z,14.10
2023-08-31T17:15:54.615Z,14.00
2023-08-31T17:18:51.548Z,14.00
2023-08-31T17:21:48.462Z,14.00
2023-08-31T17:24:45.360Z,14.00
2023-08-31T17:27:42.831Z,14.00
2023-08-31T17:30:41.077Z,14.00
2023-08-31T17:33:38.194Z,13.90
2023-08-31T17:36:37.690Z,13.90
2023-08-31T17:39:34.777Z,13.90
2023-08-31T17:42:31.676Z,13.90
2023-08-31T17:45:28.585Z,13.90
2023-08-31T17:48:25.522Z,13.90
2023-08-31T17:51:22.526Z,13.90
2023-08-31T17:54:19.562Z,13.80
2023-08-31T17:57:16.439Z,13.80
2023-08-31T18:00:14.426Z,13.70
2023-08-31T18:03:11.977Z,13.60
2023-08-31T18:06:09.083Z,13.60
2023-08-31T18:09:06.471Z,13.50
2023-08-31T18:12:09.814Z,13.50
2023-08-31T18:15:07.540Z,13.40
2023-08-31T18:18:05.119Z,13.40
2023-08-31T18:21:02.171Z,13.30
2023-08-31T18:23:59.077Z,13.30
2023-08-31T18:26:56.136Z,13.20
2023-08-31T18:29:53.419Z,13.20
2023-08-31T18:32:50.461Z,13.20
2023-08-31T18:35:56.163Z,13.30
2023-08-31T18:38:53.077Z,13.30
2023-08-31T18:41:49.981Z,13.20
2023-08-31T18:44:46.904Z,13.30
2023-08-31T18:47:43.839Z,13.30
2023-08-31T18:50:41.424Z,13.10
2023-08-31T18:53:38.290Z,13.10
2023-08-31T18:56:35.246Z,13.10
2023-08-31T18:59:32.176Z,13.10
2023-08-31T19:02:29.210Z,13.10
2023-08-31T19:05:28.243Z,13.00
2023-08-31T19:08:25.196Z,13.10
2023-08-31T19:11:22.079Z,13.00
2023-08-31T19:14:18.928Z,13.00
2023-08-31T19:17:16.723Z,13.10
2023-08-31T19:20:18.161Z,13.00
2023-08-31T19:23:15.166Z,13.00
2023-08-31T19:26:14.022Z,13.00
2023-08-31T19:29:11.066Z,12.90
2023-08-31T19:32:08.700Z,12.80
2023-08-31T19:35:24.193Z,12.90
2023-08-31T19:38:24.303Z,12.90
2023-08-31T19:41:21.387Z,12.90
2023-08-31T19:44:19.226Z,13.00
2023-08-31T19:47:16.165Z,12.90
2023-08-31T19:50:13.088Z,12.90
2023-08-31T19:53:10.231Z,12.90
2023-08-31T19:56:07.803Z,12.90
2023-08-31T19:59:06.552Z,12.90
2023-08-31T20:02:04.329Z,12.70
2023-08-31T20:05:02.244Z,12.70
2023-08-31T20:07:59.189Z,12.60
2023-08-31T20:10:56.098Z,12.60
2023-08-31T20:13:58.720Z,12.60
2023-08-31T20:16:55.728Z,12.60
2023-08-31T20:19:52.689Z,12.50
2023-08-31T20:22:50.265Z,12.40
2023-08-31T20:25:47.199Z,12.40
2023-08-31T20:28:44.102Z,12.30
2023-08-31T20:31:41.024Z,12.30
2023-08-31T20:34:38.025Z,12.20
2023-08-31T20:37:35.272Z,12.20
2023-08-31T20:40:39.512Z,12.10
2023-08-31T20:43:36.435Z,12.00
2023-08-31T20:46:37.503Z,12.00
2023-08-31T20:49:34.718Z,12.00
2023-08-31T20:52:34.253Z,11.80
2023-08-31T20:55:31.887Z,11.80
2023-08-31T20:58:28.794Z,11.80
2023-08-31T21:01:25.741Z,11.80
2023-08-31T21:04:22.736Z,11.70
2023-08-31T21:07:19.615Z,11.50
2023-08-31T21:10:16.675Z,11.60
2023-08-31T21:13:13.637Z,11.50
2023-08-31T21:16:10.648Z,11.40
2023-08-31T21:19:07.706Z,11.40
2023-08-31T21:22:04.965Z,11.40
2023-08-31T21:25:01.923Z,11.30
2023-08-31T21:27:58.834Z,11.30
2023-08-31T21:30:56.074Z,11.20
2023-08-31T21:33:53.047Z,11.10
2023-08-31T21:36:49.906Z,11.10
2023-08-31T21:39:48.424Z,11.10
2023-08-31T21:42:45.303Z,11.10
2023-08-31T21:45:42.269Z,11.00
2023-08-31T21:48:39.147Z,11.00
2023-08-31T21:51:36.133Z,11.10
2023-08-31T21:54:32.990Z,11.10
2023-08-31T21:57:29.912Z,11.10
2023-08-31T22:00:26.832Z,11.10
2023-08-31T22:03:23.965Z,11.00
2023-08-31T22:06:20.961Z,10.90
2023-08-31T22:09:19.688Z,10.90
2023-08-31T22:12:17.255Z,10.80
2023-08-31T22:15:24.108Z,10.80
2023-08-31T22:18:21.093Z,10.80
2023-08-31T22:21:18.466Z,10.70
2023-08-31T22:24:15.464Z,10.60
2023-08-31T22:27:14.597Z,10.60
2023-08-31T22:30:12.605Z,10.50
2023-08-31T22:33:09.663Z,10.50
2023-08-31T22:36:06.825Z,10.40
2023-08-31T22:39:04.276Z,10.50
2023-08-31T22:42:01.205Z,10.60
2023-08-31T22:44:58.164Z,10.60
2023-08-31T22:47:55.124Z,10.60
2023-08-31T22:51:04.842Z,10.60
2023-08-31T22:54:01.786Z,10.60
2023-08-31T22:56:58.870Z,10.50
2023-08-31T22:59:55.788Z,10.50
2023-08-31T23:02:52.938Z,10.50
2023-08-31T23:05:50.143Z,10.40
2023-08-31T23:08:48.727Z,10.40
2023-08-31T23:11:45.775Z,10.30
2023-08-31T23:14:45.896Z,10.30
2023-08-31T23:17:42.900Z,10.30
2023-08-31T23:20:39.829Z,10.20
2023-08-31T23:23:37.519Z,10.10
2023-08-31T23:26:35.064Z,10.00
2023-08-31T23:29:31.997Z,10.00
2023-08-31T23:32:28.895Z,9.90
2023-08-31T23:35:26.056Z,10.00
2023-08-31T23:38:26.381Z,10.00
2023-08-31T23:41:23.844Z,9.90
2023-08-31T23:44:20.805Z,10.00
2023-08-31T23:47:17.872Z,9.90
2023-08-31T23:50:14.844Z,9.90
2023-08-31T23:53:12.416Z,9.90
2023-08-31T23:56:10.407Z,9.90
2023-08-31T23:59:07.989Z,9.90
